createdAt,value
2016-07-28T00:00:08.618Z,0
2016-07-28T00:01:08.596Z,0
2016-07-28T00:02:08.590Z,0
2016-07-28T00:03:08.564Z,0
2016-07-28T00:04:08.546Z,0
2016-07-28T00:05:08.544Z,0
2016-07-28T00:06:08.517Z,0
2016-07-28T00:07:08.498Z,0
2016-07-28T00:08:08.478Z,0
2016-07-28T00:09:08.461Z,0
2016-07-28T00:10:08.447Z,0
2016-07-28T00:11:08.428Z,0
2016-07-28T00:12:08.465Z,0
2016-07-28T00:13:08.391Z,0
2016-07-28T00:14:08.378Z,0
2016-07-28T00:15:08.359Z,0
2016-07-28T00:16:08.345Z,0
2016-07-28T00:17:09.020Z,0
2016-07-28T00:18:08.306Z,0
2016-07-28T00:19:08.303Z,0
2016-07-28T00:20:08.266Z,0
2016-07-28T00:21:08.271Z,0
2016-07-28T00:22:08.241Z,0
2016-07-28T00:23:08.219Z,0
2016-07-28T00:24:08.211Z,0
2016-07-28T00:25:08.190Z,0
2016-07-28T00:26:08.175Z,0
2016-07-28T00:27:08.156Z,0
2016-07-28T00:28:08.144Z,0
2016-07-28T00:29:08.129Z,0
2016-07-28T00:30:08.103Z,0
2016-07-28T00:31:08.098Z,0
2016-07-28T00:32:08.070Z,0
2016-07-28T00:33:08.052Z,0
2016-07-28T00:34:08.032Z,0
2016-07-28T00:35:08.021Z,0
2016-07-28T00:36:08.003Z,0
2016-07-28T00:37:07.987Z,0
2016-07-28T00:38:07.976Z,0
2016-07-28T00:39:07.948Z,0
2016-07-28T00:40:07.953Z,0
2016-07-28T00:41:07.912Z,0
2016-07-28T00:42:07.913Z,0
2016-07-28T00:43:07.878Z,0
2016-07-28T00:44:07.872Z,0
2016-07-28T00:45:07.850Z,0
2016-07-28T00:46:07.828Z,0
2016-07-28T00:47:07.825Z,0
2016-07-28T00:48:07.805Z,0
2016-07-28T00:49:07.782Z,0
2016-07-28T00:50:07.763Z,0
2016-07-28T00:51:07.744Z,0
2016-07-28T00:52:07.732Z,0
2016-07-28T00:53:07.711Z,0
2016-07-28T00:54:07.696Z,0
2016-07-28T00:55:07.689Z,0
2016-07-28T00:56:07.660Z,0
2016-07-28T00:57:07.646Z,0
2016-07-28T00:58:07.626Z,0
2016-07-28T00:59:07.613Z,0
2016-07-28T01:00:07.600Z,0
2016-07-28T01:01:07.576Z,0
2016-07-28T01:02:08.260Z,0
2016-07-28T01:03:07.538Z,0
2016-07-28T01:04:07.525Z,0
2016-07-28T01:05:07.505Z,0
2016-07-28T01:06:07.492Z,0
2016-07-28T01:07:07.476Z,0
2016-07-28T01:08:07.464Z,0
2016-07-28T01:09:07.440Z,0
2016-07-28T01:10:07.423Z,0
2016-07-28T01:11:07.408Z,0
2016-07-28T01:12:07.384Z,0
2016-07-28T01:13:07.374Z,0
2016-07-28T01:14:07.364Z,0
2016-07-28T01:15:07.339Z,0
2016-07-28T01:16:07.323Z,0
2016-07-28T01:17:07.300Z,0
2016-07-28T01:18:07.283Z,0
2016-07-28T01:19:07.272Z,0
2016-07-28T01:20:07.943Z,0
2016-07-28T01:21:07.233Z,0
2016-07-28T01:22:07.212Z,0
2016-07-28T01:23:07.201Z,0
2016-07-28T01:24:07.184Z,0
2016-07-28T01:25:07.160Z,0
2016-07-28T01:26:07.154Z,0
2016-07-28T01:27:07.123Z,0
2016-07-28T01:28:07.806Z,0
2016-07-28T01:29:07.095Z,0
2016-07-28T01:30:07.089Z,0
2016-07-28T01:31:07.059Z,0
2016-07-28T01:32:07.046Z,0
2016-07-28T01:33:07.019Z,0
2016-07-28T01:34:07.007Z,0
2016-07-28T01:35:06.999Z,0
2016-07-28T01:36:07.449Z,0
2016-07-28T01:37:06.956Z,0
2016-07-28T01:38:06.944Z,0
2016-07-28T01:39:06.919Z,0
2016-07-28T01:40:06.900Z,0
2016-07-28T01:41:06.885Z,0
2016-07-28T01:42:06.862Z,0
2016-07-28T01:43:06.845Z,0
2016-07-28T01:44:06.831Z,0
2016-07-28T01:45:06.811Z,0
2016-07-28T01:46:06.798Z,0
2016-07-28T01:47:06.770Z,0
2016-07-28T01:48:06.762Z,0
2016-07-28T01:49:06.748Z,0
2016-07-28T01:50:06.721Z,0
2016-07-28T01:51:06.709Z,0
2016-07-28T01:52:06.685Z,0
2016-07-28T01:53:06.670Z,0
2016-07-28T01:54:06.652Z,0
2016-07-28T01:55:06.633Z,0
2016-07-28T01:56:06.622Z,0
2016-07-28T01:57:06.593Z,0
2016-07-28T01:58:06.583Z,0
2016-07-28T01:59:06.561Z,0
2016-07-28T02:00:06.557Z,0
2016-07-28T02:01:06.526Z,0
2016-07-28T02:02:06.509Z,0
2016-07-28T02:03:06.496Z,0
2016-07-28T02:04:06.471Z,0
2016-07-28T02:05:06.461Z,0
2016-07-28T02:06:06.445Z,0
2016-07-28T02:07:06.426Z,0
2016-07-28T02:08:06.402Z,0
2016-07-28T02:09:06.382Z,0
2016-07-28T02:10:06.375Z,0
2016-07-28T02:11:06.351Z,0
2016-07-28T02:12:06.337Z,0
2016-07-28T02:13:06.314Z,0
2016-07-28T02:14:06.291Z,0
2016-07-28T02:15:06.279Z,0
2016-07-28T02:16:06.260Z,0
2016-07-28T02:17:06.252Z,0
2016-07-28T02:18:06.226Z,0
2016-07-28T02:19:06.205Z,0
2016-07-28T02:20:06.191Z,0
2016-07-28T02:21:06.170Z,0
2016-07-28T02:22:06.153Z,0
2016-07-28T02:23:06.132Z,0
2016-07-28T02:24:06.115Z,0
2016-07-28T02:25:06.097Z,0
2016-07-28T02:26:06.085Z,0
2016-07-28T02:27:06.064Z,0
2016-07-28T02:28:06.055Z,0
2016-07-28T02:29:06.026Z,0
2016-07-28T02:30:06.022Z,0
2016-07-28T02:31:05.992Z,0
2016-07-28T02:32:05.972Z,0
2016-07-28T02:33:05.964Z,0
2016-07-28T02:34:05.934Z,0
2016-07-28T02:35:05.922Z,0
2016-07-28T02:36:05.902Z,0
2016-07-28T02:37:05.885Z,0
2016-07-28T02:38:05.875Z,0
2016-07-28T02:39:05.852Z,0
2016-07-28T02:40:05.830Z,0
2016-07-28T02:41:05.807Z,0
2016-07-28T02:42:05.792Z,0
2016-07-28T02:43:05.776Z,0
2016-07-28T02:44:05.757Z,0
2016-07-28T02:45:05.746Z,0
2016-07-28T02:46:05.718Z,0
2016-07-28T02:47:05.705Z,0
2016-07-28T02:48:05.679Z,0
2016-07-28T02:49:05.664Z,0
2016-07-28T02:50:05.643Z,0
2016-07-28T02:51:05.626Z,0
2016-07-28T02:52:06.296Z,0
2016-07-28T02:53:05.584Z,0
2016-07-28T02:54:05.571Z,0
2016-07-28T02:55:05.549Z,0
2016-07-28T02:56:05.549Z,0
2016-07-28T02:57:05.511Z,0
2016-07-28T02:58:05.498Z,0
2016-07-28T02:59:05.476Z,0
2016-07-28T03:00:05.469Z,0
2016-07-28T03:01:05.437Z,0
2016-07-28T03:02:05.418Z,0
2016-07-28T03:03:05.411Z,0
2016-07-28T03:04:05.389Z,0
2016-07-28T03:05:05.371Z,0
2016-07-28T03:06:05.346Z,0
2016-07-28T03:07:05.331Z,0
2016-07-28T03:08:05.313Z,0
2016-07-28T03:09:05.292Z,0
2016-07-28T03:10:05.276Z,0
2016-07-28T03:11:05.255Z,0
2016-07-28T03:12:05.257Z,0
2016-07-28T03:13:05.223Z,0
2016-07-28T03:14:05.207Z,0
2016-07-28T03:15:05.182Z,0
2016-07-28T03:16:05.166Z,0
2016-07-28T03:17:05.148Z,0
2016-07-28T03:18:05.124Z,0
2016-07-28T03:19:05.110Z,0
2016-07-28T03:20:05.090Z,0
2016-07-28T03:21:05.078Z,0
2016-07-28T03:22:05.067Z,0
2016-07-28T03:23:05.041Z,0
2016-07-28T03:24:05.019Z,0
2016-07-28T03:25:04.998Z,0
2016-07-28T03:26:04.990Z,0
2016-07-28T03:28:04.944Z,0
2016-07-28T03:29:04.931Z,0
2016-07-28T03:30:04.920Z,0
2016-07-28T03:31:04.894Z,0
2016-07-28T03:32:04.874Z,0
2016-07-28T03:33:04.860Z,0
2016-07-28T03:34:04.835Z,0
2016-07-28T03:35:04.823Z,5
2016-07-28T03:36:04.804Z,5
2016-07-28T03:37:04.787Z,5
2016-07-28T03:38:04.768Z,5
2016-07-28T03:39:04.747Z,5
2016-07-28T03:40:04.726Z,10
2016-07-28T03:41:04.707Z,10
2016-07-28T03:43:04.677Z,10
2016-07-28T03:44:04.653Z,10
2016-07-28T03:45:04.641Z,10
2016-07-28T03:46:04.618Z,10
2016-07-28T03:47:04.601Z,10
2016-07-28T03:48:04.583Z,10
2016-07-28T03:49:04.561Z,10
2016-07-28T03:50:04.569Z,10
2016-07-28T03:51:04.525Z,10
2016-07-28T03:52:04.514Z,10
2016-07-28T03:53:04.502Z,15
2016-07-28T03:54:04.468Z,15
2016-07-28T03:55:04.458Z,20
2016-07-28T03:56:04.431Z,25
2016-07-28T03:57:04.423Z,25
2016-07-28T03:58:04.406Z,30
2016-07-28T03:59:04.379Z,30
2016-07-28T04:00:04.370Z,35
2016-07-28T04:01:04.344Z,40
2016-07-28T04:02:04.332Z,40
2016-07-28T04:03:04.319Z,40
2016-07-28T04:04:04.288Z,40
2016-07-28T04:05:04.982Z,40
2016-07-28T04:06:04.251Z,40
2016-07-28T04:07:04.239Z,45
2016-07-28T04:08:04.223Z,40
2016-07-28T04:09:04.194Z,40
2016-07-28T04:10:04.181Z,40
2016-07-28T04:11:04.160Z,40
2016-07-28T04:12:04.844Z,45
2016-07-28T04:13:04.136Z,45
2016-07-28T04:14:04.105Z,50
2016-07-28T04:15:04.090Z,55
2016-07-28T04:16:04.069Z,55
2016-07-28T04:17:04.065Z,60
2016-07-28T04:18:04.031Z,60
2016-07-28T04:19:04.016Z,60
2016-07-28T04:20:03.996Z,60
2016-07-28T04:21:03.976Z,65
2016-07-28T04:22:03.962Z,70
2016-07-28T04:23:03.944Z,70
2016-07-28T04:24:03.925Z,75
2016-07-28T04:25:03.904Z,80
2016-07-28T04:26:03.881Z,85
2016-07-28T04:27:03.866Z,85
2016-07-28T04:28:03.850Z,90
2016-07-28T04:29:03.828Z,95
2016-07-28T04:30:03.813Z,100
2016-07-28T04:31:03.789Z,110
2016-07-28T04:32:03.777Z,115
2016-07-28T04:33:03.753Z,120
2016-07-28T04:34:03.741Z,125
2016-07-28T04:35:03.721Z,135
2016-07-28T04:36:03.701Z,135
2016-07-28T04:37:03.692Z,140
2016-07-28T04:38:03.673Z,145
2016-07-28T04:39:03.649Z,145
2016-07-28T04:40:03.632Z,145
2016-07-28T04:41:03.611Z,145
2016-07-28T04:42:03.594Z,145
2016-07-28T04:43:03.574Z,140
2016-07-28T04:44:03.557Z,135
2016-07-28T04:45:03.532Z,135
2016-07-28T04:46:03.520Z,140
2016-07-28T04:47:03.507Z,150
2016-07-28T04:48:03.479Z,160
2016-07-28T04:49:03.466Z,165
2016-07-28T04:50:03.441Z,165
2016-07-28T04:51:03.436Z,170
2016-07-28T04:52:03.499Z,165
2016-07-28T04:53:03.505Z,165
2016-07-28T04:54:03.370Z,155
2016-07-28T04:55:03.506Z,150
2016-07-28T04:56:03.337Z,145
2016-07-28T04:57:03.523Z,140
2016-07-28T04:58:03.301Z,135
2016-07-28T04:59:03.287Z,130
2016-07-28T05:00:03.268Z,125
2016-07-28T05:01:03.311Z,125
2016-07-28T05:02:03.430Z,120
2016-07-28T05:03:03.217Z,115
2016-07-28T05:04:03.201Z,120
2016-07-28T05:05:03.177Z,120
2016-07-28T05:06:03.166Z,125
2016-07-28T05:07:03.144Z,130
2016-07-28T05:08:03.143Z,135
2016-07-28T05:09:03.102Z,145
2016-07-28T05:10:03.092Z,155
2016-07-28T05:11:03.069Z,160
2016-07-28T05:12:03.044Z,160
2016-07-28T05:13:03.033Z,160
2016-07-28T05:14:03.020Z,155
2016-07-28T05:15:02.999Z,155
2016-07-28T05:16:02.983Z,150
2016-07-28T05:17:03.069Z,150
2016-07-28T05:18:03.184Z,150
2016-07-28T05:19:02.926Z,155
2016-07-28T05:20:03.346Z,160
2016-07-28T05:21:02.895Z,170
2016-07-28T05:22:02.869Z,180
2016-07-28T05:23:02.856Z,195
2016-07-28T05:24:02.843Z,210
2016-07-28T05:25:02.826Z,225
2016-07-28T05:26:02.803Z,235
2016-07-28T05:27:02.792Z,245
2016-07-28T05:28:02.768Z,255
2016-07-28T05:29:02.753Z,260
2016-07-28T05:30:02.734Z,265
2016-07-28T05:31:02.724Z,265
2016-07-28T05:32:02.698Z,270
2016-07-28T05:33:02.677Z,270
2016-07-28T05:34:02.665Z,270
2016-07-28T05:35:02.643Z,265
2016-07-28T05:36:02.667Z,260
2016-07-28T05:37:02.606Z,255
2016-07-28T05:38:02.644Z,250
2016-07-28T05:39:02.578Z,255
2016-07-28T05:40:02.559Z,280
2016-07-28T05:41:02.537Z,315
2016-07-28T05:42:02.520Z,345
2016-07-28T05:43:02.505Z,360
2016-07-28T05:44:02.486Z,375
2016-07-28T05:45:03.928Z,400
2016-07-28T05:46:02.451Z,430
2016-07-28T05:47:02.439Z,450
2016-07-28T05:48:02.421Z,460
2016-07-28T05:49:02.403Z,465
2016-07-28T05:50:02.390Z,455
2016-07-28T05:52:02.368Z,445
2016-07-28T05:53:02.341Z,440
2016-07-28T05:54:02.319Z,440
2016-07-28T05:55:02.399Z,445
2016-07-28T05:56:02.569Z,445
2016-07-28T05:57:02.266Z,445
2016-07-28T05:58:02.261Z,440
2016-07-28T05:59:02.234Z,440
2016-07-28T06:00:02.233Z,420
2016-07-28T06:01:02.198Z,410
2016-07-28T06:02:02.182Z,400
2016-07-28T06:03:02.355Z,395
2016-07-28T06:04:02.294Z,385
2016-07-28T06:05:02.132Z,385
2016-07-28T06:06:02.115Z,380
2016-07-28T06:07:02.105Z,385
2016-07-28T06:08:02.085Z,385
2016-07-28T06:09:02.064Z,390
2016-07-28T06:10:03.818Z,400
2016-07-28T06:11:03.312Z,405
2016-07-28T06:12:02.157Z,415
2016-07-28T06:13:02.011Z,420
2016-07-28T06:14:02.030Z,425
2016-07-28T06:15:02.813Z,425
2016-07-28T06:16:01.957Z,435
2016-07-28T06:17:01.947Z,425
2016-07-28T06:18:01.922Z,425
2016-07-28T06:19:01.903Z,415
2016-07-28T06:20:01.893Z,380
2016-07-28T06:21:01.869Z,335
2016-07-28T06:22:01.856Z,300
2016-07-28T06:23:01.837Z,290
2016-07-28T06:24:01.836Z,305
2016-07-28T06:25:01.810Z,325
2016-07-28T06:26:01.790Z,330
2016-07-28T06:27:01.779Z,330
2016-07-28T06:28:01.969Z,325
2016-07-28T06:29:01.748Z,315
2016-07-28T06:30:01.728Z,335
2016-07-28T06:31:01.716Z,375
2016-07-28T06:32:03.187Z,395
2016-07-28T06:33:01.683Z,400
2016-07-28T06:36:50.711Z,595
2016-07-28T06:36:59.961Z,605
2016-07-28T06:37:59.255Z,665
2016-07-28T06:38:59.582Z,700
2016-07-28T06:39:59.218Z,700
2016-07-28T06:41:00.533Z,700
2016-07-28T06:41:59.519Z,700
2016-07-28T06:42:59.264Z,710
2016-07-28T06:43:59.160Z,720
2016-07-28T06:44:59.145Z,710
2016-07-28T06:45:59.373Z,685
2016-07-28T06:46:59.996Z,670
2016-07-28T06:47:59.195Z,655
2016-07-28T06:48:59.595Z,600
2016-07-28T06:49:59.067Z,565
2016-07-28T06:50:59.048Z,540
2016-07-28T06:51:59.038Z,535
2016-07-28T06:52:59.041Z,555
2016-07-28T06:53:59.313Z,585
2016-07-28T06:54:59.803Z,590
2016-07-28T06:55:58.983Z,590
2016-07-28T06:56:58.960Z,580
2016-07-28T06:57:58.989Z,565
2016-07-28T06:58:59.827Z,540
2016-07-28T07:00:00.074Z,515
2016-07-28T07:00:58.916Z,500
2016-07-28T07:01:59.058Z,510
2016-07-28T07:02:59.074Z,530
2016-07-28T07:03:58.880Z,560
2016-07-28T07:04:59.533Z,575
2016-07-28T07:05:59.200Z,570
2016-07-28T07:06:59.475Z,565
2016-07-28T07:07:59.227Z,550
2016-07-28T07:08:58.962Z,535
2016-07-28T07:09:59.810Z,520
2016-07-28T07:10:58.756Z,505
2016-07-28T07:12:00.058Z,495
2016-07-28T07:12:58.766Z,490
2016-07-28T07:13:58.714Z,500
2016-07-28T07:14:58.695Z,530
2016-07-28T07:15:58.750Z,580
2016-07-28T07:16:58.667Z,615
2016-07-28T07:17:58.716Z,680
2016-07-28T07:18:58.659Z,725
2016-07-28T07:19:58.724Z,720
2016-07-28T07:20:58.638Z,725
2016-07-28T07:21:58.603Z,740
2016-07-28T07:22:59.028Z,715
2016-07-28T07:23:58.618Z,670
2016-07-28T07:24:59.087Z,610
2016-07-28T07:25:59.508Z,560
2016-07-28T07:26:58.874Z,525
2016-07-28T07:27:58.991Z,505
2016-07-28T07:28:59.995Z,495
2016-07-28T07:30:00.322Z,500
2016-07-28T07:31:01.368Z,500
2016-07-28T07:32:00.265Z,485
2016-07-28T07:33:00.788Z,485
2016-07-28T07:34:00.738Z,500
2016-07-28T07:35:01.179Z,525
2016-07-28T07:36:00.922Z,555
2016-07-28T07:36:58.740Z,575
2016-07-28T07:37:59.259Z,585
2016-07-28T07:39:00.442Z,565
2016-07-28T07:39:59.096Z,555
2016-07-28T07:40:58.431Z,550
2016-07-28T07:41:59.359Z,540
2016-07-28T07:42:58.407Z,515
2016-07-28T07:43:58.289Z,490
2016-07-28T07:44:58.269Z,465
2016-07-28T07:45:59.780Z,470
2016-07-28T07:46:58.934Z,485
2016-07-28T07:47:58.231Z,480
2016-07-28T07:48:58.213Z,460
2016-07-28T07:50:00.188Z,445
2016-07-28T07:50:58.310Z,455
2016-07-28T07:51:59.100Z,475
2016-07-28T07:52:58.259Z,490
2016-07-28T07:53:58.146Z,490
2016-07-28T07:54:58.378Z,485
2016-07-28T07:55:58.112Z,510
2016-07-28T07:56:58.300Z,580
2016-07-28T07:59:00.443Z,670
2016-07-28T08:00:00.600Z,665
2016-07-28T08:01:00.326Z,630
2016-07-28T08:01:59.182Z,610
2016-07-28T08:02:58.006Z,605
2016-07-28T08:03:58.753Z,605
2016-07-28T08:04:58.180Z,595
2016-07-28T08:05:59.347Z,590
2016-07-28T08:06:58.567Z,585
2016-07-28T08:07:58.936Z,570
2016-07-28T08:08:58.752Z,555
2016-07-28T08:09:58.939Z,545
2016-07-28T08:10:59.190Z,555
2016-07-28T08:12:04.508Z,555
2016-07-28T08:13:58.656Z,590
2016-07-28T08:14:58.553Z,600
2016-07-28T08:15:57.835Z,615
2016-07-28T08:16:58.498Z,630
2016-07-28T08:17:59.228Z,630
2016-07-28T08:18:59.183Z,630
2016-07-28T08:19:59.864Z,635
2016-07-28T08:20:59.472Z,650
2016-07-28T08:21:58.563Z,680
2016-07-28T08:22:59.779Z,700
2016-07-28T08:23:59.090Z,715
2016-07-28T08:24:59.492Z,735
2016-07-28T08:25:58.499Z,760
2016-07-28T08:27:00.675Z,785
2016-07-28T08:28:57.963Z,860
2016-07-28T08:29:59.899Z,890
2016-07-28T08:30:59.290Z,910
2016-07-28T08:32:00.958Z,920
2016-07-28T08:32:59.701Z,960
2016-07-28T08:33:58.051Z,1005
2016-07-28T08:34:58.291Z,1005
2016-07-28T08:35:57.534Z,935
2016-07-28T08:36:57.532Z,960
2016-07-28T08:37:57.587Z,970
2016-07-28T08:39:58.287Z,1100
2016-07-28T08:40:57.894Z,1160
2016-07-28T08:42:00.134Z,1210
2016-07-28T08:42:59.770Z,1220
2016-07-28T08:43:59.800Z,1175
2016-07-28T08:44:59.582Z,860
2016-07-28T08:45:57.766Z,610
2016-07-28T08:46:58.223Z,490
2016-07-28T08:47:57.378Z,535
2016-07-28T08:48:57.385Z,745
2016-07-28T08:49:57.427Z,875
2016-07-28T08:50:57.865Z,965
2016-07-28T08:51:58.242Z,990
2016-07-28T08:52:57.783Z,980
2016-07-28T08:53:57.765Z,1125
2016-07-28T08:54:58.205Z,1425
2016-07-28T08:55:58.403Z,1695
2016-07-28T08:56:58.887Z,1715
2016-07-28T08:57:58.153Z,1440
2016-07-28T08:58:59.244Z,1445
2016-07-28T08:59:57.950Z,1345
2016-07-28T09:00:58.434Z,1130
2016-07-28T09:01:58.482Z,1165
2016-07-28T09:02:59.127Z,1155
2016-07-28T09:03:58.119Z,1125
2016-07-28T09:04:58.037Z,1220
2016-07-28T09:05:57.838Z,1100
2016-07-28T09:06:58.427Z,890
2016-07-28T09:07:59.087Z,705
2016-07-28T09:08:58.157Z,660
2016-07-28T09:09:58.273Z,600
2016-07-28T09:10:57.488Z,625
2016-07-28T09:11:59.630Z,660
2016-07-28T09:12:57.356Z,695
2016-07-28T09:13:57.612Z,595
2016-07-28T09:14:58.980Z,635
2016-07-28T09:15:58.803Z,705
2016-07-28T09:16:58.809Z,745
2016-07-28T09:17:58.208Z,835
2016-07-28T09:18:58.796Z,865
2016-07-28T09:19:57.835Z,720
2016-07-28T09:21:00.152Z,560
2016-07-28T09:21:58.169Z,525
2016-07-28T09:22:58.204Z,490
2016-07-28T09:23:59.424Z,470
2016-07-28T09:24:58.352Z,450
2016-07-28T09:25:58.582Z,440
2016-07-28T09:26:57.453Z,445
2016-07-28T09:27:58.561Z,485
2016-07-28T09:28:59.748Z,530
2016-07-28T09:29:57.963Z,465
2016-07-28T09:30:58.225Z,415
2016-07-28T09:31:56.912Z,405
2016-07-28T09:32:58.498Z,370
2016-07-28T09:33:57.721Z,345
2016-07-28T09:34:58.400Z,335
2016-07-28T09:35:58.579Z,315
2016-07-28T09:36:59.462Z,540
2016-07-28T09:37:57.250Z,655
2016-07-28T09:38:58.551Z,635
2016-07-28T09:39:58.190Z,670
2016-07-28T09:40:58.606Z,730
2016-07-28T09:41:58.816Z,900
2016-07-28T09:42:57.732Z,990
2016-07-28T09:43:59.818Z,890
2016-07-28T09:44:57.329Z,880
2016-07-28T09:45:56.813Z,1030
2016-07-28T09:46:57.041Z,1135
2016-07-28T09:47:58.049Z,1015
2016-07-28T09:48:58.212Z,880
2016-07-28T09:49:58.138Z,665
2016-07-28T09:50:57.882Z,595
2016-07-28T09:51:58.776Z,520
2016-07-28T09:52:56.984Z,585
2016-07-28T09:53:57.509Z,780
2016-07-28T09:54:58.645Z,920
2016-07-28T09:55:58.010Z,840
2016-07-28T09:56:57.651Z,745
2016-07-28T09:57:57.506Z,660
2016-07-28T09:58:57.866Z,625
2016-07-28T09:59:57.189Z,620
2016-07-28T10:00:57.647Z,775
2016-07-28T10:01:57.168Z,875
2016-07-28T10:02:56.391Z,805
2016-07-28T10:03:56.349Z,690
2016-07-28T10:04:56.648Z,670
2016-07-28T10:05:57.055Z,790
2016-07-28T10:06:56.456Z,1020
2016-07-28T10:07:56.430Z,1120
2016-07-28T10:08:56.302Z,1145
2016-07-28T10:09:56.264Z,1230
2016-07-28T10:10:56.270Z,1190
2016-07-28T10:11:58.024Z,1010
2016-07-28T10:12:56.563Z,955
2016-07-28T10:13:57.676Z,1055
2016-07-28T10:14:56.195Z,1160
2016-07-28T10:15:57.367Z,1105
2016-07-28T10:16:56.574Z,1020
2016-07-28T10:17:57.473Z,1010
2016-07-28T10:18:56.731Z,955
2016-07-28T10:19:57.485Z,880
2016-07-28T10:20:56.546Z,970
2016-07-28T10:21:56.568Z,1060
2016-07-28T10:22:56.412Z,1090
2016-07-28T10:23:59.310Z,1185
2016-07-28T10:24:57.121Z,1275
2016-07-28T10:25:57.710Z,1420
2016-07-28T10:26:57.867Z,1390
2016-07-28T10:27:58.344Z,1295
2016-07-28T10:28:58.002Z,1710
2016-07-28T10:29:57.670Z,1770
2016-07-28T10:30:57.759Z,1645
2016-07-28T10:31:58.433Z,1665
2016-07-28T10:32:58.933Z,2205
2016-07-28T10:33:57.790Z,3130
2016-07-28T10:34:58.095Z,1880
2016-07-28T10:35:58.571Z,1755
2016-07-28T10:36:58.627Z,2080
2016-07-28T10:37:58.874Z,1785
2016-07-28T10:38:58.561Z,1980
2016-07-28T10:39:58.912Z,2305
2016-07-28T10:41:00.092Z,2510
2016-07-28T10:41:58.866Z,2110
2016-07-28T10:42:58.314Z,2095
2016-07-28T10:43:58.299Z,2015
2016-07-28T10:44:57.979Z,1880
2016-07-28T10:45:58.707Z,1455
2016-07-28T10:46:58.591Z,1310
2016-07-28T10:47:59.563Z,1220
2016-07-28T10:48:58.459Z,1040
2016-07-28T10:49:57.929Z,895
2016-07-28T10:50:58.669Z,820
2016-07-28T10:51:58.267Z,850
2016-07-28T10:52:58.416Z,860
2016-07-28T10:53:58.358Z,940
2016-07-28T10:54:58.033Z,1165
2016-07-28T10:55:59.074Z,1220
2016-07-28T10:56:58.341Z,1225
2016-07-28T10:57:58.204Z,1385
2016-07-28T10:58:58.233Z,1500
2016-07-28T10:59:59.379Z,1420
2016-07-28T11:00:58.331Z,1405
2016-07-28T11:01:58.334Z,1280
2016-07-28T11:02:58.346Z,1165
2016-07-28T11:03:58.401Z,1260
2016-07-28T11:04:58.237Z,1405
2016-07-28T11:05:57.793Z,1275
2016-07-28T11:06:58.410Z,1010
2016-07-28T11:07:57.508Z,930
2016-07-28T11:08:57.888Z,785
2016-07-28T11:09:58.022Z,930
2016-07-28T11:10:57.773Z,1025
2016-07-28T11:11:57.722Z,955
2016-07-28T11:12:57.674Z,810
2016-07-28T11:13:57.725Z,730
2016-07-28T11:14:57.949Z,655
2016-07-28T11:15:59.463Z,505
2016-07-28T11:16:59.818Z,545
2016-07-28T11:18:00.039Z,590
2016-07-28T11:19:00.084Z,570
2016-07-28T11:19:58.535Z,560
2016-07-28T11:20:58.263Z,675
2016-07-28T11:21:58.377Z,820
2016-07-28T11:22:58.078Z,1035
2016-07-28T11:23:57.779Z,1000
2016-07-28T11:24:57.794Z,1005
2016-07-28T11:25:58.399Z,1120
2016-07-28T11:26:58.675Z,1105
2016-07-28T11:27:59.167Z,1035
2016-07-28T11:28:58.190Z,1075
2016-07-28T11:29:57.360Z,1135
2016-07-28T11:30:57.669Z,1180
2016-07-28T11:31:58.104Z,1225
2016-07-28T11:32:58.520Z,1230
2016-07-28T11:33:58.592Z,1185
2016-07-28T11:34:58.521Z,1225
2016-07-28T11:35:57.765Z,1310
2016-07-28T11:36:57.836Z,1405
2016-07-28T11:37:57.851Z,1490
2016-07-28T11:38:57.955Z,1580
2016-07-28T11:39:57.913Z,1655
2016-07-28T11:40:57.176Z,1755
2016-07-28T11:41:57.110Z,1830
2016-07-28T11:42:57.387Z,1895
2016-07-28T11:43:57.329Z,1905
2016-07-28T11:44:57.291Z,1910
2016-07-28T11:45:58.129Z,1990
2016-07-28T11:46:57.179Z,2110
2016-07-28T11:47:57.290Z,2260
2016-07-28T11:48:58.038Z,2300
2016-07-28T11:49:57.140Z,2130
2016-07-28T11:50:57.047Z,1970
2016-07-28T11:51:57.113Z,1775
2016-07-28T11:52:58.455Z,1735
2016-07-28T11:53:57.903Z,1645
2016-07-28T11:54:58.978Z,1495
2016-07-28T11:55:56.776Z,1740
2016-07-28T11:56:57.174Z,1900
2016-07-28T11:57:58.157Z,1910
2016-07-28T11:58:57.355Z,1895
2016-07-28T11:59:56.404Z,1895
2016-07-28T12:00:57.558Z,2185
2016-07-28T12:01:57.092Z,2435
2016-07-28T12:02:57.255Z,2205
2016-07-28T12:03:57.204Z,1865
2016-07-28T12:04:57.726Z,1570
2016-07-28T12:05:56.687Z,1565
2016-07-28T12:06:59.528Z,1370
2016-07-28T12:07:58.082Z,1275
2016-07-28T12:08:56.816Z,1410
2016-07-28T12:09:57.294Z,1875
2016-07-28T12:10:57.727Z,1615
2016-07-28T12:11:57.212Z,1270
2016-07-28T12:12:56.167Z,1200
2016-07-28T12:13:57.657Z,1140
2016-07-28T12:14:55.620Z,1010
2016-07-28T12:15:56.864Z,880
2016-07-28T12:16:56.953Z,1250
2016-07-28T12:17:57.689Z,2250
2016-07-28T12:18:56.672Z,2005
2016-07-28T12:19:56.252Z,1860
2016-07-28T12:20:56.840Z,1885
2016-07-28T12:21:56.974Z,2160
2016-07-28T12:22:57.781Z,2000
2016-07-28T12:23:57.656Z,1810
2016-07-28T12:24:56.423Z,1735
2016-07-28T12:25:58.012Z,1720
2016-07-28T12:26:57.174Z,2080
2016-07-28T12:27:57.021Z,2910
2016-07-28T12:28:58.146Z,2005
2016-07-28T12:29:56.937Z,2400
2016-07-28T12:30:57.983Z,2020
2016-07-28T12:31:56.843Z,1835
2016-07-28T12:32:56.502Z,1325
2016-07-28T12:33:56.709Z,1185
2016-07-28T12:34:56.855Z,1055
2016-07-28T12:35:57.085Z,1195
2016-07-28T12:36:58.393Z,1255
2016-07-28T12:37:57.603Z,1185
2016-07-28T12:38:56.843Z,2180
2016-07-28T12:39:57.209Z,1420
2016-07-28T12:40:58.657Z,1530
2016-07-28T12:41:57.093Z,1815
2016-07-28T12:42:56.956Z,1755
2016-07-28T12:43:57.920Z,1730
2016-07-28T12:44:57.103Z,1780
2016-07-28T12:45:56.603Z,2030
2016-07-28T12:46:57.785Z,2635
2016-07-28T12:47:58.111Z,1995
2016-07-28T12:48:58.957Z,1565
2016-07-28T12:49:57.672Z,1525
2016-07-28T12:50:56.933Z,1520
2016-07-28T12:51:56.763Z,1520
2016-07-28T12:52:57.432Z,1610
2016-07-28T12:53:56.998Z,1625
2016-07-28T12:54:57.370Z,1530
2016-07-28T12:55:58.271Z,1420
2016-07-28T12:56:56.934Z,1255
2016-07-28T12:57:57.233Z,1360
2016-07-28T12:59:57.122Z,1630
2016-07-28T13:00:56.305Z,1335
2016-07-28T13:01:56.959Z,1130
2016-07-28T13:02:57.092Z,1145
2016-07-28T13:03:57.338Z,1780
2016-07-28T13:04:56.116Z,2165
2016-07-28T13:05:57.531Z,1630
2016-07-28T13:06:58.881Z,1505
2016-07-28T13:07:57.886Z,1220
2016-07-28T13:08:58.130Z,935
2016-07-28T13:09:56.667Z,755
2016-07-28T13:10:57.376Z,670
2016-07-28T13:11:57.166Z,660
2016-07-28T13:12:56.192Z,770
2016-07-28T13:13:56.453Z,970
2016-07-28T13:14:56.533Z,1060
2016-07-28T13:15:56.536Z,940
2016-07-28T13:16:56.533Z,865
2016-07-28T13:17:56.453Z,1095
2016-07-28T13:18:56.300Z,1485
2016-07-28T13:19:57.053Z,1675
2016-07-28T13:20:57.827Z,1755
2016-07-28T13:21:56.320Z,1750
2016-07-28T13:22:57.739Z,1660
2016-07-28T13:23:56.734Z,1510
2016-07-28T13:24:56.480Z,1535
2016-07-28T13:25:56.610Z,1715
2016-07-28T13:26:57.039Z,1630
2016-07-28T13:27:56.668Z,1545
2016-07-28T13:28:57.497Z,1450
2016-07-28T13:29:57.081Z,1240
2016-07-28T13:30:57.181Z,1015
2016-07-28T13:31:56.982Z,1130
2016-07-28T13:32:56.956Z,1610
2016-07-28T13:33:57.214Z,1585
2016-07-28T13:34:56.889Z,1400
2016-07-28T13:35:57.346Z,1155
2016-07-28T13:36:56.960Z,1135
2016-07-28T13:37:56.743Z,1210
2016-07-28T13:38:56.782Z,1355
2016-07-28T13:39:56.990Z,1470
2016-07-28T13:40:56.642Z,1540
2016-07-28T13:41:56.627Z,1635
2016-07-28T13:42:56.533Z,1640
2016-07-28T13:43:56.830Z,1510
2016-07-28T13:44:56.818Z,1480
2016-07-28T13:45:56.433Z,1455
2016-07-28T13:46:56.865Z,1530
2016-07-28T13:47:56.413Z,1570
2016-07-28T13:48:56.577Z,1485
2016-07-28T13:49:57.319Z,1480
2016-07-28T13:50:56.532Z,1560
2016-07-28T13:51:56.414Z,1730
2016-07-28T13:52:56.336Z,1805
2016-07-28T13:53:56.730Z,2215
2016-07-28T13:54:56.205Z,1965
2016-07-28T13:55:58.450Z,1710
2016-07-28T13:56:56.091Z,1895
2016-07-28T13:57:56.366Z,1995
2016-07-28T13:58:56.508Z,1950
2016-07-28T13:59:56.503Z,2540
2016-07-28T14:00:57.097Z,2785
2016-07-28T14:01:56.865Z,3225
2016-07-28T14:02:56.127Z,2265
2016-07-28T14:03:56.167Z,1895